sensor_id;sensor_type;location;lat;lon;timestamp;pressure;altitude;pressure_sealevel;temperature
62932;BMP280;49037;41.898;25.004;2024-02-23T00:00:50;96230.19;;;5.78
62932;BMP280;49037;41.898;25.004;2024-02-23T00:03:15;96210.06;;;5.69
62932;BMP280;49037;41.898;25.004;2024-02-23T00:05:41;96230.78;;;5.71
62932;BMP280;49037;41.898;25.004;2024-02-23T00:08:07;96241.22;;;5.58
62932;BMP280;49037;41.898;25.004;2024-02-23T00:10:32;96218.50;;;5.44
62932;BMP280;49037;41.898;25.004;2024-02-23T00:12:57;96212.22;;;5.47
62932;BMP280;49037;41.898;25.004;2024-02-23T00:15:24;96235.00;;;5.56
62932;BMP280;49037;41.898;25.004;2024-02-23T00:17:50;96231.03;;;5.44
62932;BMP280;49037;41.898;25.004;2024-02-23T00:20:16;96213.00;;;5.42
62932;BMP280;49037;41.898;25.004;2024-02-23T00:22:41;96226.13;;;5.53
62932;BMP280;49037;41.898;25.004;2024-02-23T00:25:07;96229.25;;;5.52
62932;BMP280;49037;41.898;25.004;2024-02-23T00:27:33;96210.66;;;5.33
62932;BMP280;49037;41.898;25.004;2024-02-23T00:29:59;96202.47;;;5.37
62932;BMP280;49037;41.898;25.004;2024-02-23T00:32:24;96207.00;;;5.36
62932;BMP280;49037;41.898;25.004;2024-02-23T00:34:50;96209.72;;;5.31
62932;BMP280;49037;41.898;25.004;2024-02-23T00:37:15;96211.66;;;5.30
62932;BMP280;49037;41.898;25.004;2024-02-23T00:39:40;96200.06;;;5.33
62932;BMP280;49037;41.898;25.004;2024-02-23T00:42:06;96215.66;;;5.60
62932;BMP280;49037;41.898;25.004;2024-02-23T00:44:32;96198.72;;;5.93
62932;BMP280;49037;41.898;25.004;2024-02-23T00:46:58;96192.13;;;6.17
62932;BMP280;49037;41.898;25.004;2024-02-23T00:49:27;96197.66;;;6.19
62932;BMP280;49037;41.898;25.004;2024-02-23T00:51:53;96228.69;;;6.24
62932;BMP280;49037;41.898;25.004;2024-02-23T00:54:19;96198.88;;;6.00
62932;BMP280;49037;41.898;25.004;2024-02-23T00:56:45;96189.94;;;5.79
62932;BMP280;49037;41.898;25.004;2024-02-23T00:59:10;96194.09;;;5.75
62932;BMP280;49037;41.898;25.004;2024-02-23T01:01:36;96184.31;;;5.70
62932;BMP280;49037;41.898;25.004;2024-02-23T01:04:01;96192.91;;;5.94
62932;BMP280;49037;41.898;25.004;2024-02-23T01:06:27;96178.09;;;5.86
62932;BMP280;49037;41.898;25.004;2024-02-23T01:08:53;96186.78;;;5.86
62932;BMP280;49037;41.898;25.004;2024-02-23T01:11:19;96178.41;;;5.77
62932;BMP280;49037;41.898;25.004;2024-02-23T01:13:46;96165.34;;;5.84
62932;BMP280;49037;41.898;25.004;2024-02-23T01:16:11;96188.13;;;5.93
62932;BMP280;49037;41.898;25.004;2024-02-23T01:18:37;96191.34;;;5.86
62932;BMP280;49037;41.898;25.004;2024-02-23T01:21:02;96177.88;;;5.84
62932;BMP280;49037;41.898;25.004;2024-02-23T01:23:28;96172.63;;;5.78
62932;BMP280;49037;41.898;25.004;2024-02-23T01:25:53;96168.19;;;5.68
62932;BMP280;49037;41.898;25.004;2024-02-23T01:28:20;96147.75;;;5.63
62932;BMP280;49037;41.898;25.004;2024-02-23T01:30:46;96148.19;;;5.67
62932;BMP280;49037;41.898;25.004;2024-02-23T01:33:11;96171.56;;;5.87
62932;BMP280;49037;41.898;25.004;2024-02-23T01:35:37;96143.91;;;5.64
62932;BMP280;49037;41.898;25.004;2024-02-23T01:38:03;96132.94;;;5.55
62932;BMP280;49037;41.898;25.004;2024-02-23T01:40:28;96151.19;;;5.58
62932;BMP280;49037;41.898;25.004;2024-02-23T01:43:06;96163.66;;;5.63
62932;BMP280;49037;41.898;25.004;2024-02-23T01:45:32;96154.66;;;5.48
62932;BMP280;49037;41.898;25.004;2024-02-23T01:47:58;96150.31;;;5.50
62932;BMP280;49037;41.898;25.004;2024-02-23T01:50:25;96141.22;;;5.46
62932;BMP280;49037;41.898;25.004;2024-02-23T01:52:52;96139.34;;;5.83
62932;BMP280;49037;41.898;25.004;2024-02-23T01:55:20;96146.72;;;5.90
62932;BMP280;49037;41.898;25.004;2024-02-23T01:57:47;96145.72;;;5.93
62932;BMP280;49037;41.898;25.004;2024-02-23T02:00:16;96142.78;;;5.78
62932;BMP280;49037;41.898;25.004;2024-02-23T02:02:43;96164.06;;;5.72
62932;BMP280;49037;41.898;25.004;2024-02-23T02:05:09;96146.63;;;5.59
62932;BMP280;49037;41.898;25.004;2024-02-23T02:07:39;96136.22;;;5.42
62932;BMP280;49037;41.898;25.004;2024-02-23T02:10:08;96150.44;;;5.39
62932;BMP280;49037;41.898;25.004;2024-02-23T02:12:35;96139.78;;;5.21
62932;BMP280;49037;41.898;25.004;2024-02-23T02:15:01;96147.53;;;5.19
62932;BMP280;49037;41.898;25.004;2024-02-23T02:17:29;96133.34;;;5.16
62932;BMP280;49037;41.898;25.004;2024-02-23T02:19:54;96130.84;;;5.29
62932;BMP280;49037;41.898;25.004;2024-02-23T02:22:20;96121.44;;;5.28
62932;BMP280;49037;41.898;25.004;2024-02-23T02:24:45;96144.44;;;5.39
62932;BMP280;49037;41.898;25.004;2024-02-23T02:27:13;96116.25;;;5.17
62932;BMP280;49037;41.898;25.004;2024-02-23T02:29:39;96120.13;;;5.16
62932;BMP280;49037;41.898;25.004;2024-02-23T02:32:04;96134.06;;;5.41
62932;BMP280;49037;41.898;25.004;2024-02-23T02:34:30;96128.28;;;5.42
62932;BMP280;49037;41.898;25.004;2024-02-23T02:36:55;96122.75;;;5.40
62932;BMP280;49037;41.898;25.004;2024-02-23T02:39:21;96114.63;;;5.33
62932;BMP280;49037;41.898;25.004;2024-02-23T02:41:48;96120.50;;;5.26
62932;BMP280;49037;41.898;25.004;2024-02-23T02:44:14;96117.34;;;5.27
62932;BMP280;49037;41.898;25.004;2024-02-23T02:46:41;96113.78;;;5.25
62932;BMP280;49037;41.898;25.004;2024-02-23T02:49:08;96108.97;;;5.23
62932;BMP280;49037;41.898;25.004;2024-02-23T02:51:33;96137.75;;;5.32
62932;BMP280;49037;41.898;25.004;2024-02-23T02:53:59;96126.66;;;5.10
62932;BMP280;49037;41.898;25.004;2024-02-23T02:56:24;96148.56;;;5.10
62932;BMP280;49037;41.898;25.004;2024-02-23T02:58:50;96134.50;;;4.97
62932;BMP280;49037;41.898;25.004;2024-02-23T03:01:15;96157.25;;;5.06
62932;BMP280;49037;41.898;25.004;2024-02-23T03:03:41;96151.44;;;5.12
62932;BMP280;49037;41.898;25.004;2024-02-23T03:06:06;96149.09;;;5.04
62932;BMP280;49037;41.898;25.004;2024-02-23T03:08:33;96141.19;;;4.98
62932;BMP280;49037;41.898;25.004;2024-02-23T03:10:59;96147.28;;;4.93
62932;BMP280;49037;41.898;25.004;2024-02-23T03:13:24;96140.06;;;4.94
62932;BMP280;49037;41.898;25.004;2024-02-23T03:15:50;96157.44;;;5.13
62932;BMP280;49037;41.898;25.004;2024-02-23T03:18:15;96152.97;;;5.03
62932;BMP280;49037;41.898;25.004;2024-02-23T03:20:42;96157.84;;;4.93
62932;BMP280;49037;41.898;25.004;2024-02-23T03:23:08;96137.28;;;4.81
62932;BMP280;49037;41.898;25.004;2024-02-23T03:25:33;96162.69;;;4.89
62932;BMP280;49037;41.898;25.004;2024-02-23T03:27:59;96152.94;;;4.79
62932;BMP280;49037;41.898;25.004;2024-02-23T03:30:24;96140.25;;;4.66
62932;BMP280;49037;41.898;25.004;2024-02-23T03:32:50;96146.03;;;4.65
62932;BMP280;49037;41.898;25.004;2024-02-23T03:35:15;96144.81;;;4.71
62932;BMP280;49037;41.898;25.004;2024-02-23T03:37:41;96138.66;;;4.58
62932;BMP280;49037;41.898;25.004;2024-02-23T03:40:07;96149.88;;;4.64
62932;BMP280;49037;41.898;25.004;2024-02-23T03:42:33;96133.94;;;4.46
62932;BMP280;49037;41.898;25.004;2024-02-23T03:44:58;96147.34;;;4.48
62932;BMP280;49037;41.898;25.004;2024-02-23T03:47:24;96135.59;;;4.49
62932;BMP280;49037;41.898;25.004;2024-02-23T03:49:51;96142.06;;;4.48
62932;BMP280;49037;41.898;25.004;2024-02-23T03:52:16;96134.75;;;4.30
62932;BMP280;49037;41.898;25.004;2024-02-23T03:54:42;96134.47;;;4.39
62932;BMP280;49037;41.898;25.004;2024-02-23T03:57:07;96156.25;;;4.50
62932;BMP280;49037;41.898;25.004;2024-02-23T03:59:35;96128.91;;;4.42
62932;BMP280;49037;41.898;25.004;2024-02-23T04:02:01;96128.00;;;4.29
62932;BMP280;49037;41.898;25.004;2024-02-23T04:04:27;96129.22;;;4.33
62932;BMP280;49037;41.898;25.004;2024-02-23T04:06:52;96133.28;;;4.34
62932;BMP280;49037;41.898;25.004;2024-02-23T04:09:18;96132.44;;;4.50
62932;BMP280;49037;41.898;25.004;2024-02-23T04:11:48;96140.72;;;4.70
62932;BMP280;49037;41.898;25.004;2024-02-23T04:14:33;96138.31;;;4.72
62932;BMP280;49037;41.898;25.004;2024-02-23T04:17:03;96158.50;;;4.70
62932;BMP280;49037;41.898;25.004;2024-02-23T04:19:30;96144.47;;;4.51
62932;BMP280;49037;41.898;25.004;2024-02-23T04:21:55;96136.56;;;4.46
62932;BMP280;49037;41.898;25.004;2024-02-23T04:24:21;96136.06;;;4.47
62932;BMP280;49037;41.898;25.004;2024-02-23T04:26:46;96156.00;;;4.54
62932;BMP280;49037;41.898;25.004;2024-02-23T04:29:13;96160.31;;;4.51
62932;BMP280;49037;41.898;25.004;2024-02-23T04:31:39;96152.00;;;4.36
62932;BMP280;49037;41.898;25.004;2024-02-23T04:34:04;96160.69;;;4.31
62932;BMP280;49037;41.898;25.004;2024-02-23T04:36:30;96135.81;;;4.10
62932;BMP280;49037;41.898;25.004;2024-02-23T04:38:56;96147.16;;;4.05
62932;BMP280;49037;41.898;25.004;2024-02-23T04:41:22;96142.28;;;4.15
62932;BMP280;49037;41.898;25.004;2024-02-23T04:44:07;96152.50;;;4.35
62932;BMP280;49037;41.898;25.004;2024-02-23T04:46:34;96136.72;;;4.24
62932;BMP280;49037;41.898;25.004;2024-02-23T04:49:02;96143.69;;;4.21
62932;BMP280;49037;41.898;25.004;2024-02-23T04:51:28;96141.28;;;4.23
62932;BMP280;49037;41.898;25.004;2024-02-23T04:53:53;96136.59;;;4.05
62932;BMP280;49037;41.898;25.004;2024-02-23T04:56:19;96131.13;;;3.93
62932;BMP280;49037;41.898;25.004;2024-02-23T04:58:47;96147.41;;;4.02
62932;BMP280;49037;41.898;25.004;2024-02-23T05:01:12;96146.72;;;3.91
62932;BMP280;49037;41.898;25.004;2024-02-23T05:03:38;96138.31;;;3.98
62932;BMP280;49037;41.898;25.004;2024-02-23T05:06:04;96128.47;;;3.87
62932;BMP280;49037;41.898;25.004;2024-02-23T05:08:30;96129.97;;;3.83
62932;BMP280;49037;41.898;25.004;2024-02-23T05:10:58;96156.72;;;4.08
62932;BMP280;49037;41.898;25.004;2024-02-23T05:14:03;96161.25;;;4.13
62932;BMP280;49037;41.898;25.004;2024-02-23T05:16:29;96159.84;;;4.07
62932;BMP280;49037;41.898;25.004;2024-02-23T05:18:54;96168.22;;;4.11
62932;BMP280;49037;41.898;25.004;2024-02-23T05:21:20;96164.41;;;4.06
62932;BMP280;49037;41.898;25.004;2024-02-23T05:23:45;96182.16;;;4.17
62932;BMP280;49037;41.898;25.004;2024-02-23T05:26:12;96164.97;;;3.94
62932;BMP280;49037;41.898;25.004;2024-02-23T05:28:39;96177.66;;;3.96
62932;BMP280;49037;41.898;25.004;2024-02-23T05:31:05;96168.31;;;4.00
62932;BMP280;49037;41.898;25.004;2024-02-23T05:33:30;96168.00;;;4.14
62932;BMP280;49037;41.898;25.004;2024-02-23T05:35:56;96179.00;;;4.18
62932;BMP280;49037;41.898;25.004;2024-02-23T05:38:27;96171.81;;;4.13
62932;BMP280;49037;41.898;25.004;2024-02-23T05:40:59;96186.22;;;4.12
62932;BMP280;49037;41.898;25.004;2024-02-23T05:43:24;96186.22;;;4.12
62932;BMP280;49037;41.898;25.004;2024-02-23T05:45:49;96185.00;;;4.19
62932;BMP280;49037;41.898;25.004;2024-02-23T05:48:15;96173.06;;;4.07
62932;BMP280;49037;41.898;25.004;2024-02-23T05:50:40;96169.25;;;4.02
62932;BMP280;49037;41.898;25.004;2024-02-23T05:53:06;96172.06;;;4.10
62932;BMP280;49037;41.898;25.004;2024-02-23T05:55:31;96170.88;;;4.11
62932;BMP280;49037;41.898;25.004;2024-02-23T05:57:57;96170.84;;;4.16
62932;BMP280;49037;41.898;25.004;2024-02-23T06:00:22;96200.56;;;4.33
62932;BMP280;49037;41.898;25.004;2024-02-23T06:02:48;96181.41;;;4.16
62932;BMP280;49037;41.898;25.004;2024-02-23T06:05:13;96188.38;;;4.19
62932;BMP280;49037;41.898;25.004;2024-02-23T06:07:40;96210.66;;;4.29
62932;BMP280;49037;41.898;25.004;2024-02-23T06:10:06;96202.97;;;4.31
62932;BMP280;49037;41.898;25.004;2024-02-23T06:12:32;96203.72;;;4.26
62932;BMP280;49037;41.898;25.004;2024-02-23T06:15:00;96218.56;;;4.35
62932;BMP280;49037;41.898;25.004;2024-02-23T06:17:26;96223.09;;;4.45
62932;BMP280;49037;41.898;25.004;2024-02-23T06:19:54;96210.84;;;4.42
62932;BMP280;49037;41.898;25.004;2024-02-23T06:22:23;96208.47;;;4.39
62932;BMP280;49037;41.898;25.004;2024-02-23T06:24:50;96206.78;;;4.30
62932;BMP280;49037;41.898;25.004;2024-02-23T06:27:16;96203.44;;;4.30
62932;BMP280;49037;41.898;25.004;2024-02-23T06:29:42;96203.22;;;4.28
62932;BMP280;49037;41.898;25.004;2024-02-23T06:32:08;96207.75;;;4.33
62932;BMP280;49037;41.898;25.004;2024-02-23T06:34:34;96227.84;;;4.47
62932;BMP280;49037;41.898;25.004;2024-02-23T06:36:59;96214.72;;;4.36
62932;BMP280;49037;41.898;25.004;2024-02-23T06:39:25;96200.53;;;4.39
62932;BMP280;49037;41.898;25.004;2024-02-23T06:41:51;96202.69;;;4.40
62932;BMP280;49037;41.898;25.004;2024-02-23T06:44:17;96201.72;;;4.43
62932;BMP280;49037;41.898;25.004;2024-02-23T06:46:42;96206.47;;;4.50
62932;BMP280;49037;41.898;25.004;2024-02-23T06:49:09;96206.91;;;4.59
62932;BMP280;49037;41.898;25.004;2024-02-23T06:51:35;96217.16;;;4.74
62932;BMP280;49037;41.898;25.004;2024-02-23T06:54:00;96242.88;;;5.08
62932;BMP280;49037;41.898;25.004;2024-02-23T06:56:28;96219.69;;;5.19
62932;BMP280;49037;41.898;25.004;2024-02-23T06:58:54;96225.44;;;5.47
62932;BMP280;49037;41.898;25.004;2024-02-23T07:01:20;96238.28;;;5.61
62932;BMP280;49037;41.898;25.004;2024-02-23T07:03:48;96225.19;;;5.74
62932;BMP280;49037;41.898;25.004;2024-02-23T07:06:16;96232.25;;;6.09
62932;BMP280;49037;41.898;25.004;2024-02-23T07:08:44;96230.63;;;6.42
62932;BMP280;49037;41.898;25.004;2024-02-23T07:11:10;96234.00;;;6.61
62932;BMP280;49037;41.898;25.004;2024-02-23T07:13:36;96224.63;;;6.91
62932;BMP280;49037;41.898;25.004;2024-02-23T07:16:02;96226.81;;;7.18
62932;BMP280;49037;41.898;25.004;2024-02-23T07:18:28;96240.16;;;7.44
62932;BMP280;49037;41.898;25.004;2024-02-23T07:20:53;96222.88;;;7.51
62932;BMP280;49037;41.898;25.004;2024-02-23T07:23:19;96224.41;;;7.72
62932;BMP280;49037;41.898;25.004;2024-02-23T07:25:44;96240.16;;;8.09
62932;BMP280;49037;41.898;25.004;2024-02-23T07:28:10;96237.19;;;8.32
62932;BMP280;49037;41.898;25.004;2024-02-23T07:30:37;96223.66;;;8.43
62932;BMP280;49037;41.898;25.004;2024-02-23T07:33:02;96228.94;;;8.56
62932;BMP280;49037;41.898;25.004;2024-02-23T07:35:28;96228.31;;;8.63
62932;BMP280;49037;41.898;25.004;2024-02-23T07:37:55;96227.53;;;8.75
62932;BMP280;49037;41.898;25.004;2024-02-23T07:40:21;96222.25;;;8.83
62932;BMP280;49037;41.898;25.004;2024-02-23T07:42:47;96241.13;;;8.85
62932;BMP280;49037;41.898;25.004;2024-02-23T07:45:12;96231.38;;;8.67
62932;BMP280;49037;41.898;25.004;2024-02-23T07:47:38;96248.88;;;8.83
62932;BMP280;49037;41.898;25.004;2024-02-23T07:50:04;96244.97;;;8.63
62932;BMP280;49037;41.898;25.004;2024-02-23T07:52:33;96252.16;;;8.89
62932;BMP280;49037;41.898;25.004;2024-02-23T07:54:59;96251.06;;;9.05
62932;BMP280;49037;41.898;25.004;2024-02-23T07:57:27;96233.97;;;9.00
62932;BMP280;49037;41.898;25.004;2024-02-23T07:59:54;96238.75;;;9.22
62932;BMP280;49037;41.898;25.004;2024-02-23T08:02:20;96232.41;;;9.25
62932;BMP280;49037;41.898;25.004;2024-02-23T08:04:45;96230.91;;;9.16
62932;BMP280;49037;41.898;25.004;2024-02-23T08:07:12;96238.44;;;9.25
62932;BMP280;49037;41.898;25.004;2024-02-23T08:09:38;96248.69;;;9.42
62932;BMP280;49037;41.898;25.004;2024-02-23T08:12:04;96237.09;;;9.39
62932;BMP280;49037;41.898;25.004;2024-02-23T08:14:30;96243.28;;;9.62
62932;BMP280;49037;41.898;25.004;2024-02-23T08:16:55;96243.44;;;9.84
62932;BMP280;49037;41.898;25.004;2024-02-23T08:19:21;96250.13;;;10.20
62932;BMP280;49037;41.898;25.004;2024-02-23T08:21:46;96242.16;;;10.35
62932;BMP280;49037;41.898;25.004;2024-02-23T08:24:12;96245.44;;;10.63
62932;BMP280;49037;41.898;25.004;2024-02-23T08:26:37;96232.81;;;10.79
62932;BMP280;49037;41.898;25.004;2024-02-23T08:29:03;96248.34;;;11.10
62932;BMP280;49037;41.898;25.004;2024-02-23T08:31:29;96243.72;;;10.88
62932;BMP280;49037;41.898;25.004;2024-02-23T08:33:55;96235.50;;;10.94
62932;BMP280;49037;41.898;25.004;2024-02-23T08:36:20;96230.66;;;10.70
62932;BMP280;49037;41.898;25.004;2024-02-23T08:38:46;96236.56;;;10.91
62932;BMP280;49037;41.898;25.004;2024-02-23T08:41:11;96230.34;;;10.81
62932;BMP280;49037;41.898;25.004;2024-02-23T08:43:37;96229.78;;;10.90
62932;BMP280;49037;41.898;25.004;2024-02-23T08:46:02;96226.59;;;10.99
62932;BMP280;49037;41.898;25.004;2024-02-23T08:48:28;96215.56;;;11.02
62932;BMP280;49037;41.898;25.004;2024-02-23T08:50:53;96208.97;;;11.03
62932;BMP280;49037;41.898;25.004;2024-02-23T08:53:20;96217.69;;;11.03
62932;BMP280;49037;41.898;25.004;2024-02-23T08:55:45;96211.94;;;11.22
62932;BMP280;49037;41.898;25.004;2024-02-23T08:58:10;96214.44;;;11.42
62932;BMP280;49037;41.898;25.004;2024-02-23T09:00:36;96229.22;;;11.43
62932;BMP280;49037;41.898;25.004;2024-02-23T09:04:36;96225.97;;;11.52
62932;BMP280;49037;41.898;25.004;2024-02-23T09:07:03;96213.34;;;11.45
62932;BMP280;49037;41.898;25.004;2024-02-23T09:10:06;96219.00;;;11.64
62932;BMP280;49037;41.898;25.004;2024-02-23T09:16:36;96243.13;;;12.03
62932;BMP280;49037;41.898;25.004;2024-02-23T09:19:02;96233.72;;;11.87
62932;BMP280;49037;41.898;25.004;2024-02-23T09:21:29;96229.88;;;12.05
62932;BMP280;49037;41.898;25.004;2024-02-23T09:25:17;96237.56;;;12.08
62932;BMP280;49037;41.898;25.004;2024-02-23T09:27:44;96234.75;;;11.99
62932;BMP280;49037;41.898;25.004;2024-02-23T09:30:14;96238.84;;;12.00
62932;BMP280;49037;41.898;25.004;2024-02-23T09:32:39;96235.47;;;12.31
62932;BMP280;49037;41.898;25.004;2024-02-23T09:36:04;96235.28;;;12.37
62932;BMP280;49037;41.898;25.004;2024-02-23T09:38:30;96221.28;;;12.45
62932;BMP280;49037;41.898;25.004;2024-02-23T09:40:58;96228.47;;;12.67
62932;BMP280;49037;41.898;25.004;2024-02-23T09:43:26;96226.84;;;12.64
62932;BMP280;49037;41.898;25.004;2024-02-23T09:45:54;96232.72;;;12.94
62932;BMP280;49037;41.898;25.004;2024-02-23T09:48:22;96232.22;;;12.88
62932;BMP280;49037;41.898;25.004;2024-02-23T09:50:52;96222.00;;;13.11
62932;BMP280;49037;41.898;25.004;2024-02-23T09:53:50;96229.69;;;13.65
62932;BMP280;49037;41.898;25.004;2024-02-23T09:56:17;96212.25;;;13.40
62932;BMP280;49037;41.898;25.004;2024-02-23T10:01:32;96201.34;;;13.21
62932;BMP280;49037;41.898;25.004;2024-02-23T10:04:21;96209.25;;;13.53
62932;BMP280;49037;41.898;25.004;2024-02-23T10:06:48;96208.22;;;13.65
62932;BMP280;49037;41.898;25.004;2024-02-23T10:09:17;96188.84;;;13.57
62932;BMP280;49037;41.898;25.004;2024-02-23T10:11:52;96189.53;;;13.58
62932;BMP280;49037;41.898;25.004;2024-02-23T10:14:19;96183.38;;;13.48
62932;BMP280;49037;41.898;25.004;2024-02-23T10:18:12;96178.66;;;13.39
62932;BMP280;49037;41.898;25.004;2024-02-23T10:20:38;96182.03;;;13.23
62932;BMP280;49037;41.898;25.004;2024-02-23T10:23:04;96184.16;;;13.41
62932;BMP280;49037;41.898;25.004;2024-02-23T10:25:32;96179.81;;;13.62
62932;BMP280;49037;41.898;25.004;2024-02-23T10:27:58;96169.22;;;13.64
62932;BMP280;49037;41.898;25.004;2024-02-23T10:32:32;96183.94;;;14.15
62932;BMP280;49037;41.898;25.004;2024-02-23T10:35:20;96176.88;;;14.56
62932;BMP280;49037;41.898;25.004;2024-02-23T10:38:22;96165.88;;;14.80
62932;BMP280;49037;41.898;25.004;2024-02-23T10:40:49;96158.88;;;14.39
62932;BMP280;49037;41.898;25.004;2024-02-23T10:43:19;96155.47;;;14.39
62932;BMP280;49037;41.898;25.004;2024-02-23T10:45:51;96153.09;;;14.52
62932;BMP280;49037;41.898;25.004;2024-02-23T10:48:22;96141.34;;;14.38
62932;BMP280;49037;41.898;25.004;2024-02-23T10:50:48;96133.44;;;14.05
62932;BMP280;49037;41.898;25.004;2024-02-23T10:53:19;96142.16;;;14.31
62932;BMP280;49037;41.898;25.004;2024-02-23T10:55:50;96158.03;;;14.46
62932;BMP280;49037;41.898;25.004;2024-02-23T10:58:25;96152.09;;;14.38
62932;BMP280;49037;41.898;25.004;2024-02-23T11:01:13;96143.75;;;14.34
62932;BMP280;49037;41.898;25.004;2024-02-23T11:03:43;96135.28;;;14.12
62932;BMP280;49037;41.898;25.004;2024-02-23T11:06:12;96141.72;;;14.35
62932;BMP280;49037;41.898;25.004;2024-02-23T11:08:47;96141.84;;;14.72
62932;BMP280;49037;41.898;25.004;2024-02-23T11:11:16;96148.47;;;14.62
62932;BMP280;49037;41.898;25.004;2024-02-23T11:14:07;96126.69;;;14.58
62932;BMP280;49037;41.898;25.004;2024-02-23T11:16:41;96123.53;;;14.52
62932;BMP280;49037;41.898;25.004;2024-02-23T11:19:12;96134.88;;;14.60
62932;BMP280;49037;41.898;25.004;2024-02-23T11:21:54;96129.00;;;14.90
62932;BMP280;49037;41.898;25.004;2024-02-23T11:24:31;96122.75;;;14.97
62932;BMP280;49037;41.898;25.004;2024-02-23T11:27:16;96129.56;;;15.16
62932;BMP280;49037;41.898;25.004;2024-02-23T11:30:19;96132.31;;;15.56
62932;BMP280;49037;41.898;25.004;2024-02-23T11:32:49;96120.06;;;15.25
62932;BMP280;49037;41.898;25.004;2024-02-23T11:38:06;96125.88;;;15.21
62932;BMP280;49037;41.898;25.004;2024-02-23T11:40:40;96107.00;;;15.31
62932;BMP280;49037;41.898;25.004;2024-02-23T11:44:07;96108.97;;;15.39
62932;BMP280;49037;41.898;25.004;2024-02-23T11:49:53;96116.03;;;15.63
62932;BMP280;49037;41.898;25.004;2024-02-23T11:56:03;96091.22;;;15.65
62932;BMP280;49037;41.898;25.004;2024-02-23T11:58:54;96104.19;;;15.47
62932;BMP280;49037;41.898;25.004;2024-02-23T12:02:40;96095.72;;;15.32
62932;BMP280;49037;41.898;25.004;2024-02-23T12:33:50;96094.75;;;16.27
62932;BMP280;49037;41.898;25.004;2024-02-23T13:10:31;96052.22;;;17.00
62932;BMP280;49037;41.898;25.004;2024-02-23T13:33:57;96051.22;;;16.31
62932;BMP280;49037;41.898;25.004;2024-02-23T14:20:57;96045.00;;;17.36
62932;BMP280;49037;41.898;25.004;2024-02-23T14:35:43;96017.31;;;17.24
62932;BMP280;49037;41.898;25.004;2024-02-23T15:07:09;96019.16;;;14.86
62932;BMP280;49037;41.898;25.004;2024-02-23T15:09:51;96021.59;;;14.73
62932;BMP280;49037;41.898;25.004;2024-02-23T15:13:01;96033.75;;;14.83
62932;BMP280;49037;41.898;25.004;2024-02-23T15:16:01;96014.34;;;14.47
62932;BMP280;49037;41.898;25.004;2024-02-23T15:18:48;96033.72;;;14.46
62932;BMP280;49037;41.898;25.004;2024-02-23T15:21:45;96015.03;;;14.10
62932;BMP280;49037;41.898;25.004;2024-02-23T15:24:29;96021.72;;;14.28
62932;BMP280;49037;41.898;25.004;2024-02-23T15:27:05;96043.06;;;14.35
62932;BMP280;49037;41.898;25.004;2024-02-23T15:29:31;96032.41;;;14.18
62932;BMP280;49037;41.898;25.004;2024-02-23T15:32:02;96026.06;;;14.14
62932;BMP280;49037;41.898;25.004;2024-02-23T15:34:33;96015.25;;;13.95
62932;BMP280;49037;41.898;25.004;2024-02-23T15:37:08;96027.16;;;13.92
62932;BMP280;49037;41.898;25.004;2024-02-23T15:42:43;96021.09;;;13.66
62932;BMP280;49037;41.898;25.004;2024-02-23T15:45:20;96036.88;;;13.62
62932;BMP280;49037;41.898;25.004;2024-02-23T15:51:07;96036.16;;;13.26
62932;BMP280;49037;41.898;25.004;2024-02-23T15:53:46;96036.88;;;13.09
62932;BMP280;49037;41.898;25.004;2024-02-23T15:57:04;96040.44;;;13.12
62932;BMP280;49037;41.898;25.004;2024-02-23T15:59:41;96038.25;;;13.01
62932;BMP280;49037;41.898;25.004;2024-02-23T16:02:12;96037.53;;;13.00
62932;BMP280;49037;41.898;25.004;2024-02-23T16:04:43;96049.72;;;12.77
62932;BMP280;49037;41.898;25.004;2024-02-23T16:07:08;96057.63;;;12.58
62932;BMP280;49037;41.898;25.004;2024-02-23T16:09:34;96055.16;;;12.53
62932;BMP280;49037;41.898;25.004;2024-02-23T16:12:00;96039.75;;;12.44
62932;BMP280;49037;41.898;25.004;2024-02-23T16:14:29;96049.50;;;12.49
62932;BMP280;49037;41.898;25.004;2024-02-23T16:16:55;96051.72;;;12.60
62932;BMP280;49037;41.898;25.004;2024-02-23T16:19:40;96045.78;;;12.44
62932;BMP280;49037;41.898;25.004;2024-02-23T16:22:26;96059.09;;;12.35
62932;BMP280;49037;41.898;25.004;2024-02-23T16:24:51;96059.97;;;12.13
62932;BMP280;49037;41.898;25.004;2024-02-23T16:27:17;96072.81;;;12.15
62932;BMP280;49037;41.898;25.004;2024-02-23T16:29:45;96063.34;;;12.14
62932;BMP280;49037;41.898;25.004;2024-02-23T16:32:11;96068.84;;;12.23
62932;BMP280;49037;41.898;25.004;2024-02-23T16:34:38;96086.25;;;12.07
62932;BMP280;49037;41.898;25.004;2024-02-23T16:37:05;96072.22;;;11.99
62932;BMP280;49037;41.898;25.004;2024-02-23T16:39:31;96083.03;;;12.33
62932;BMP280;49037;41.898;25.004;2024-02-23T16:41:57;96084.63;;;12.36
62932;BMP280;49037;41.898;25.004;2024-02-23T16:44:22;96072.78;;;12.39
62932;BMP280;49037;41.898;25.004;2024-02-23T16:46:49;96089.34;;;12.45
62932;BMP280;49037;41.898;25.004;2024-02-23T16:49:14;96076.34;;;12.17
62932;BMP280;49037;41.898;25.004;2024-02-23T16:51:40;96103.34;;;12.12
62932;BMP280;49037;41.898;25.004;2024-02-23T16:54:08;96088.19;;;11.90
62932;BMP280;49037;41.898;25.004;2024-02-23T16:56:33;96083.66;;;11.92
62932;BMP280;49037;41.898;25.004;2024-02-23T16:58:59;96077.63;;;12.16
62932;BMP280;49037;41.898;25.004;2024-02-23T17:01:24;96082.78;;;12.38
62932;BMP280;49037;41.898;25.004;2024-02-23T17:03:50;96075.66;;;12.58
62932;BMP280;49037;41.898;25.004;2024-02-23T17:06:15;96090.72;;;12.87
62932;BMP280;49037;41.898;25.004;2024-02-23T17:08:41;96101.53;;;13.13
62932;BMP280;49037;41.898;25.004;2024-02-23T17:11:07;96090.13;;;13.13
62932;BMP280;49037;41.898;25.004;2024-02-23T17:13:32;96087.94;;;13.28
62932;BMP280;49037;41.898;25.004;2024-02-23T17:15:58;96098.66;;;13.45
62932;BMP280;49037;41.898;25.004;2024-02-23T17:18:24;96091.50;;;13.57
62932;BMP280;49037;41.898;25.004;2024-02-23T17:20:51;96096.31;;;13.58
62932;BMP280;49037;41.898;25.004;2024-02-23T17:23:19;96117.19;;;13.76
62932;BMP280;49037;41.898;25.004;2024-02-23T17:25:46;96107.56;;;13.73
62932;BMP280;49037;41.898;25.004;2024-02-23T17:28:11;96100.03;;;13.63
62932;BMP280;49037;41.898;25.004;2024-02-23T17:30:41;96097.53;;;13.74
62932;BMP280;49037;41.898;25.004;2024-02-23T17:33:07;96105.88;;;13.78